Sand Point, Michigan
Current Conditions -  °F | °C
As of 3:19 AM on Tuesday 21 Oct 2014 (Local Time) from KBAX Reporting Station
Moderate Rain Moderate Rain  
Wind Chill: 41°   Ceiling: 600
Heat Index: 47°   Visibility: 5mi
Dew Point: 47°   Wind: 14mph
Humidity: 100%   Direction: 350°N
Pressure: 29.89"   Gusts: NA
Location:  43.8338°N, 83.2671°W
Report Text: KBAX 210719Z AUTO 35012KT 5SM RA OVC006 08/08 A2989 RMK AO2 T00820082
Loading
Personal Weather Stations






























Interactive Weather Map
Tropical Storm Tracking
New forecast layout! Learn more

10-Day Weather Forecast

Advertisements
Track Severe Weather on mobile